sensor_id;sensor_type;location;lat;lon;timestamp;pressure;altitude;pressure_sealevel;temperature;humidity
8717;BME280;4395;48.554;8.820;2023-04-20T00:01:02;95768.25;;;2.92;100.00
8717;BME280;4395;48.554;8.820;2023-04-20T00:03:06;95798.38;;;3.31;100.00
8717;BME280;4395;48.554;8.820;2023-04-20T00:05:11;95733.78;;;2.59;100.00
8717;BME280;4395;48.554;8.820;2023-04-20T00:07:14;95792.72;;;3.14;100.00
8717;BME280;4395;48.554;8.820;2023-04-20T00:09:17;95782.47;;;3.24;100.00
8717;BME280;4395;48.554;8.820;2023-04-20T00:11:20;95705.00;;;2.69;100.00
8717;BME280;4395;48.554;8.820;2023-04-20T00:13:23;95531.41;;;1.41;100.00
8717;BME280;4395;48.554;8.820;2023-04-20T00:15:26;95801.28;;;3.22;100.00
8717;BME280;4395;48.554;8.820;2023-04-20T00:17:28;95681.56;;;2.40;100.00
8717;BME280;4395;48.554;8.820;2023-04-20T00:19:32;95779.84;;;3.17;100.00
8717;BME280;4395;48.554;8.820;2023-04-20T00:21:36;95775.97;;;3.07;100.00
8717;BME280;4395;48.554;8.820;2023-04-20T00:23:39;95783.50;;;3.23;100.00
8717;BME280;4395;48.554;8.820;2023-04-20T00:25:42;95770.41;;;3.21;100.00
8717;BME280;4395;48.554;8.820;2023-04-20T00:27:45;95765.31;;;3.20;100.00
8717;BME280;4395;48.554;8.820;2023-04-20T00:29:48;95579.03;;;2.07;100.00
8717;BME280;4395;48.554;8.820;2023-04-20T00:31:50;95754.69;;;3.20;100.00
8717;BME280;4395;48.554;8.820;2023-04-20T00:33:53;95755.16;;;3.04;100.00
8717;BME280;4395;48.554;8.820;2023-04-20T00:35:56;95745.00;;;2.87;100.00
8717;BME280;4395;48.554;8.820;2023-04-20T00:38:00;95662.00;;;2.41;100.00
8717;BME280;4395;48.554;8.820;2023-04-20T00:40:04;95307.34;;;0.16;100.00
8717;BME280;4395;48.554;8.820;2023-04-20T00:42:08;95775.22;;;2.86;100.00
8717;BME280;4395;48.554;8.820;2023-04-20T00:44:10;95290.00;;;-0.19;100.00
8717;BME280;4395;48.554;8.820;2023-04-20T00:46:14;95610.84;;;2.07;100.00
8717;BME280;4395;48.554;8.820;2023-04-20T00:48:18;95585.75;;;2.10;100.00
8717;BME280;4395;48.554;8.820;2023-04-20T00:50:21;95737.53;;;3.16;100.00
8717;BME280;4395;48.554;8.820;2023-04-20T00:52:24;95723.66;;;3.14;100.00
8717;BME280;4395;48.554;8.820;2023-04-20T00:54:30;95751.47;;;3.11;100.00
8717;BME280;4395;48.554;8.820;2023-04-20T00:56:33;95727.75;;;3.10;100.00
8717;BME280;4395;48.554;8.820;2023-04-20T00:58:36;95729.84;;;3.01;100.00
8717;BME280;4395;48.554;8.820;2023-04-20T01:00:39;95688.25;;;2.82;100.00
8717;BME280;4395;48.554;8.820;2023-04-20T01:02:43;95711.38;;;3.19;100.00
8717;BME280;4395;48.554;8.820;2023-04-20T01:04:46;95622.78;;;2.56;100.00
8717;BME280;4395;48.554;8.820;2023-04-20T01:06:49;95438.38;;;1.18;100.00
8717;BME280;4395;48.554;8.820;2023-04-20T01:08:54;95649.84;;;2.84;100.00
8717;BME280;4395;48.554;8.820;2023-04-20T01:10:58;95692.94;;;2.86;100.00
8717;BME280;4395;48.554;8.820;2023-04-20T01:13:01;95676.16;;;2.93;100.00
8717;BME280;4395;48.554;8.820;2023-04-20T01:15:07;95685.03;;;2.60;100.00
8717;BME280;4395;48.554;8.820;2023-04-20T01:17:10;95614.94;;;2.03;100.00
8717;BME280;4395;48.554;8.820;2023-04-20T01:19:18;95349.03;;;0.27;100.00
8717;BME280;4395;48.554;8.820;2023-04-20T01:21:22;95542.22;;;1.46;100.00
8717;BME280;4395;48.554;8.820;2023-04-20T01:23:27;95344.56;;;0.21;100.00
8717;BME280;4395;48.554;8.820;2023-04-20T01:25:30;95689.97;;;2.10;100.00
8717;BME280;4395;48.554;8.820;2023-04-20T01:27:32;95673.81;;;2.65;100.00
8717;BME280;4395;48.554;8.820;2023-04-20T01:29:36;95646.50;;;2.24;100.00
8717;BME280;4395;48.554;8.820;2023-04-20T01:31:38;95625.91;;;2.20;100.00
8717;BME280;4395;48.554;8.820;2023-04-20T01:33:41;95680.34;;;2.49;100.00
8717;BME280;4395;48.554;8.820;2023-04-20T01:35:45;95675.41;;;2.59;100.00
8717;BME280;4395;48.554;8.820;2023-04-20T01:37:48;95387.28;;;0.64;100.00
8717;BME280;4395;48.554;8.820;2023-04-20T01:39:54;95540.34;;;1.80;100.00
8717;BME280;4395;48.554;8.820;2023-04-20T01:41:56;95664.19;;;2.70;100.00
8717;BME280;4395;48.554;8.820;2023-04-20T01:43:59;95532.63;;;1.72;100.00
8717;BME280;4395;48.554;8.820;2023-04-20T01:46:02;95657.25;;;2.56;100.00
8717;BME280;4395;48.554;8.820;2023-04-20T01:48:05;95669.31;;;2.52;100.00
8717;BME280;4395;48.554;8.820;2023-04-20T01:50:09;95650.34;;;2.42;100.00
8717;BME280;4395;48.554;8.820;2023-04-20T01:52:12;95644.00;;;2.56;100.00
8717;BME280;4395;48.554;8.820;2023-04-20T01:54:15;95653.38;;;2.65;100.00
8717;BME280;4395;48.554;8.820;2023-04-20T01:56:19;95651.97;;;2.63;100.00
8717;BME280;4395;48.554;8.820;2023-04-20T01:58:23;95236.16;;;-0.05;100.00
8717;BME280;4395;48.554;8.820;2023-04-20T02:00:26;95423.50;;;1.17;100.00
8717;BME280;4395;48.554;8.820;2023-04-20T02:02:29;95647.91;;;2.40;100.00
8717;BME280;4395;48.554;8.820;2023-04-20T02:04:32;95641.56;;;2.61;100.00
8717;BME280;4395;48.554;8.820;2023-04-20T02:06:35;95476.00;;;1.59;100.00
8717;BME280;4395;48.554;8.820;2023-04-20T02:08:37;95644.63;;;2.45;100.00
8717;BME280;4395;48.554;8.820;2023-04-20T02:10:41;95648.91;;;2.46;100.00
8717;BME280;4395;48.554;8.820;2023-04-20T02:12:46;95643.44;;;2.34;100.00
8717;BME280;4395;48.554;8.820;2023-04-20T02:14:49;95218.19;;;-0.76;100.00
8717;BME280;4395;48.554;8.820;2023-04-20T02:16:55;95636.94;;;2.10;100.00
8717;BME280;4395;48.554;8.820;2023-04-20T02:18:57;95640.59;;;2.22;100.00
8717;BME280;4395;48.554;8.820;2023-04-20T02:21:00;95683.03;;;2.22;100.00
8717;BME280;4395;48.554;8.820;2023-04-20T02:23:03;95503.28;;;1.60;100.00
8717;BME280;4395;48.554;8.820;2023-04-20T02:25:09;95634.44;;;2.42;100.00
8717;BME280;4395;48.554;8.820;2023-04-20T02:27:15;95592.91;;;2.09;100.00
8717;BME280;4395;48.554;8.820;2023-04-20T02:29:19;95317.94;;;0.56;100.00
8717;BME280;4395;48.554;8.820;2023-04-20T02:31:22;95459.09;;;1.47;100.00
8717;BME280;4395;48.554;8.820;2023-04-20T02:33:25;95611.97;;;2.51;100.00
8717;BME280;4395;48.554;8.820;2023-04-20T02:35:28;95615.47;;;2.45;100.00
8717;BME280;4395;48.554;8.820;2023-04-20T02:37:31;95548.06;;;2.01;100.00
8717;BME280;4395;48.554;8.820;2023-04-20T02:39:33;95613.19;;;2.48;100.00
8717;BME280;4395;48.554;8.820;2023-04-20T02:41:36;95608.47;;;2.57;100.00
8717;BME280;4395;48.554;8.820;2023-04-20T02:43:39;95599.91;;;2.55;100.00
8717;BME280;4395;48.554;8.820;2023-04-20T02:45:45;95548.09;;;1.81;100.00
8717;BME280;4395;48.554;8.820;2023-04-20T02:47:49;95607.09;;;2.48;100.00
8717;BME280;4395;48.554;8.820;2023-04-20T02:49:52;95431.22;;;1.25;100.00
8717;BME280;4395;48.554;8.820;2023-04-20T02:51:55;95554.34;;;2.13;100.00
8717;BME280;4395;48.554;8.820;2023-04-20T02:53:58;95506.72;;;1.80;100.00
8717;BME280;4395;48.554;8.820;2023-04-20T02:56:03;95600.97;;;2.41;100.00
8717;BME280;4395;48.554;8.820;2023-04-20T02:58:15;95598.97;;;2.30;100.00
8717;BME280;4395;48.554;8.820;2023-04-20T03:00:38;95594.69;;;2.35;100.00
8717;BME280;4395;48.554;8.820;2023-04-20T03:02:44;95597.53;;;2.34;100.00
8717;BME280;4395;48.554;8.820;2023-04-20T03:04:47;95576.75;;;2.31;100.00
8717;BME280;4395;48.554;8.820;2023-04-20T03:06:53;95578.63;;;2.04;100.00
8717;BME280;4395;48.554;8.820;2023-04-20T03:09:01;95575.59;;;1.87;100.00
8717;BME280;4395;48.554;8.820;2023-04-20T03:11:21;95498.41;;;1.50;100.00
8717;BME280;4395;48.554;8.820;2023-04-20T03:13:24;95044.28;;;-2.12;100.00
8717;BME280;4395;48.554;8.820;2023-04-20T03:15:33;95423.72;;;0.76;100.00
8717;BME280;4395;48.554;8.820;2023-04-20T03:17:46;95572.16;;;1.67;100.00
8717;BME280;4395;48.554;8.820;2023-04-20T03:19:51;95560.34;;;1.56;100.00
8717;BME280;4395;48.554;8.820;2023-04-20T03:21:53;95504.94;;;1.15;100.00
8717;BME280;4395;48.554;8.820;2023-04-20T03:23:56;95408.84;;;0.42;100.00
8717;BME280;4395;48.554;8.820;2023-04-20T03:25:59;95238.72;;;-0.58;100.00
8717;BME280;4395;48.554;8.820;2023-04-20T03:28:23;95566.47;;;1.63;100.00
8717;BME280;4395;48.554;8.820;2023-04-20T03:30:26;95250.97;;;-0.30;100.00
8717;BME280;4395;48.554;8.820;2023-04-20T03:32:51;95439.00;;;1.00;100.00
8717;BME280;4395;48.554;8.820;2023-04-20T03:34:54;95562.56;;;1.92;100.00
8717;BME280;4395;48.554;8.820;2023-04-20T03:36:57;95563.16;;;1.87;100.00
8717;BME280;4395;48.554;8.820;2023-04-20T03:39:00;95288.66;;;0.11;100.00
8717;BME280;4395;48.554;8.820;2023-04-20T03:41:03;95497.00;;;1.02;100.00
8717;BME280;4395;48.554;8.820;2023-04-20T03:43:08;95564.41;;;1.78;100.00
8717;BME280;4395;48.554;8.820;2023-04-20T03:45:12;95560.75;;;1.73;100.00
8717;BME280;4395;48.554;8.820;2023-04-20T03:47:15;95568.47;;;1.81;100.00
8717;BME280;4395;48.554;8.820;2023-04-20T03:49:22;95502.50;;;1.40;100.00
8717;BME280;4395;48.554;8.820;2023-04-20T03:51:25;95554.63;;;1.72;100.00
8717;BME280;4395;48.554;8.820;2023-04-20T03:53:28;95459.94;;;1.15;100.00
8717;BME280;4395;48.554;8.820;2023-04-20T03:55:32;95551.97;;;1.79;100.00
8717;BME280;4395;48.554;8.820;2023-04-20T03:57:39;95556.47;;;1.72;100.00
8717;BME280;4395;48.554;8.820;2023-04-20T03:59:43;95367.56;;;0.54;100.00
8717;BME280;4395;48.554;8.820;2023-04-20T04:01:50;95504.13;;;1.21;100.00
8717;BME280;4395;48.554;8.820;2023-04-20T04:03:53;95457.72;;;1.05;100.00
8717;BME280;4395;48.554;8.820;2023-04-20T04:05:58;95423.94;;;0.74;100.00
8717;BME280;4395;48.554;8.820;2023-04-20T04:08:01;95276.19;;;-0.21;100.00
8717;BME280;4395;48.554;8.820;2023-04-20T04:10:06;95544.06;;;1.52;100.00
8717;BME280;4395;48.554;8.820;2023-04-20T04:12:09;95346.59;;;0.32;100.00
8717;BME280;4395;48.554;8.820;2023-04-20T04:14:13;95425.53;;;0.62;100.00
8717;BME280;4395;48.554;8.820;2023-04-20T04:16:17;95414.78;;;0.77;100.00
8717;BME280;4395;48.554;8.820;2023-04-20T04:18:21;95553.63;;;1.60;100.00
8717;BME280;4395;48.554;8.820;2023-04-20T04:20:25;95546.28;;;1.49;100.00
8717;BME280;4395;48.554;8.820;2023-04-20T04:22:30;95546.09;;;1.57;100.00
8717;BME280;4395;48.554;8.820;2023-04-20T04:24:53;95427.78;;;0.98;100.00
8717;BME280;4395;48.554;8.820;2023-04-20T04:26:56;95477.66;;;1.34;100.00
8717;BME280;4395;48.554;8.820;2023-04-20T04:29:01;95554.03;;;1.64;100.00
8717;BME280;4395;48.554;8.820;2023-04-20T04:31:07;95441.41;;;0.75;100.00
8717;BME280;4395;48.554;8.820;2023-04-20T04:33:10;95371.81;;;0.48;100.00
8717;BME280;4395;48.554;8.820;2023-04-20T04:35:18;95351.50;;;0.55;100.00
8717;BME280;4395;48.554;8.820;2023-04-20T04:37:21;95538.34;;;1.49;100.00
8717;BME280;4395;48.554;8.820;2023-04-20T04:39:29;95549.72;;;1.76;100.00
8717;BME280;4395;48.554;8.820;2023-04-20T04:41:47;95551.97;;;1.79;100.00
8717;BME280;4395;48.554;8.820;2023-04-20T04:43:58;95556.84;;;1.82;100.00
8717;BME280;4395;48.554;8.820;2023-04-20T04:46:07;95544.56;;;2.07;100.00
8717;BME280;4395;48.554;8.820;2023-04-20T04:48:11;95571.25;;;2.25;100.00
8717;BME280;4395;48.554;8.820;2023-04-20T04:50:15;95549.97;;;2.39;100.00
8717;BME280;4395;48.554;8.820;2023-04-20T04:52:19;95385.84;;;1.15;100.00
8717;BME280;4395;48.554;8.820;2023-04-20T04:54:22;95416.53;;;1.42;100.00
8717;BME280;4395;48.554;8.820;2023-04-20T04:56:26;95524.63;;;1.98;100.00
8717;BME280;4395;48.554;8.820;2023-04-20T04:58:29;95439.31;;;1.56;100.00
8717;BME280;4395;48.554;8.820;2023-04-20T05:00:32;95549.19;;;2.32;100.00
8717;BME280;4395;48.554;8.820;2023-04-20T05:02:35;95544.25;;;2.42;100.00
8717;BME280;4395;48.554;8.820;2023-04-20T05:04:38;95546.53;;;2.38;100.00
8717;BME280;4395;48.554;8.820;2023-04-20T05:06:41;95546.97;;;2.22;100.00
8717;BME280;4395;48.554;8.820;2023-04-20T05:08:44;95492.03;;;1.84;100.00
8717;BME280;4395;48.554;8.820;2023-04-20T05:10:47;95547.94;;;2.41;100.00
8717;BME280;4395;48.554;8.820;2023-04-20T05:12:51;95544.63;;;2.52;100.00
8717;BME280;4395;48.554;8.820;2023-04-20T05:14:54;95539.03;;;2.15;100.00
8717;BME280;4395;48.554;8.820;2023-04-20T05:16:57;95561.81;;;2.36;100.00
8717;BME280;4395;48.554;8.820;2023-04-20T05:19:00;95548.69;;;2.54;100.00
8717;BME280;4395;48.554;8.820;2023-04-20T05:21:03;95557.47;;;2.55;100.00
8717;BME280;4395;48.554;8.820;2023-04-20T05:23:06;95549.47;;;2.68;100.00
8717;BME280;4395;48.554;8.820;2023-04-20T05:25:09;95549.91;;;2.65;100.00
8717;BME280;4395;48.554;8.820;2023-04-20T05:27:14;95044.44;;;-0.66;100.00
8717;BME280;4395;48.554;8.820;2023-04-20T05:29:18;94970.38;;;-0.97;100.00
8717;BME280;4395;48.554;8.820;2023-04-20T05:31:21;95556.56;;;2.81;100.00
8717;BME280;4395;48.554;8.820;2023-04-20T05:33:25;95566.09;;;2.95;100.00
8717;BME280;4395;48.554;8.820;2023-04-20T05:35:28;95556.13;;;3.22;100.00
8717;BME280;4395;48.554;8.820;2023-04-20T05:37:31;95465.19;;;2.70;100.00
8717;BME280;4395;48.554;8.820;2023-04-20T05:39:34;95547.66;;;3.32;100.00
8717;BME280;4395;48.554;8.820;2023-04-20T05:41:38;95563.72;;;3.43;100.00
8717;BME280;4395;48.554;8.820;2023-04-20T05:43:41;95329.72;;;1.96;100.00
8717;BME280;4395;48.554;8.820;2023-04-20T05:45:47;95555.66;;;3.81;100.00
8717;BME280;4395;48.554;8.820;2023-04-20T05:47:53;95564.63;;;4.05;100.00
8717;BME280;4395;48.554;8.820;2023-04-20T05:49:56;95556.22;;;4.08;100.00
8717;BME280;4395;48.554;8.820;2023-04-20T05:51:59;95554.38;;;4.09;100.00
8717;BME280;4395;48.554;8.820;2023-04-20T05:54:02;95560.88;;;4.13;100.00
8717;BME280;4395;48.554;8.820;2023-04-20T05:56:06;95554.28;;;4.15;100.00
8717;BME280;4395;48.554;8.820;2023-04-20T05:58:09;95563.91;;;4.35;100.00
8717;BME280;4395;48.554;8.820;2023-04-20T06:00:15;95554.44;;;4.20;100.00
8717;BME280;4395;48.554;8.820;2023-04-20T06:02:19;95468.03;;;3.25;100.00
8717;BME280;4395;48.554;8.820;2023-04-20T06:04:22;95374.47;;;2.80;100.00
8717;BME280;4395;48.554;8.820;2023-04-20T06:06:26;95564.66;;;4.24;100.00
8717;BME280;4395;48.554;8.820;2023-04-20T06:08:28;95568.78;;;4.56;100.00
8717;BME280;4395;48.554;8.820;2023-04-20T06:10:31;95503.47;;;4.24;100.00
8717;BME280;4395;48.554;8.820;2023-04-20T06:12:35;95541.88;;;4.46;100.00
8717;BME280;4395;48.554;8.820;2023-04-20T06:14:38;95554.28;;;4.70;100.00
8717;BME280;4395;48.554;8.820;2023-04-20T06:16:41;95566.94;;;4.75;100.00
8717;BME280;4395;48.554;8.820;2023-04-20T06:18:46;95019.06;;;1.01;100.00
8717;BME280;4395;48.554;8.820;2023-04-20T06:20:49;95485.50;;;4.19;100.00
8717;BME280;4395;48.554;8.820;2023-04-20T06:22:52;95556.75;;;4.35;100.00
8717;BME280;4395;48.554;8.820;2023-04-20T06:24:55;95559.63;;;4.34;100.00
8717;BME280;4395;48.554;8.820;2023-04-20T06:26:59;95508.19;;;4.03;100.00
8717;BME280;4395;48.554;8.820;2023-04-20T06:29:02;95269.31;;;2.36;100.00
8717;BME280;4395;48.554;8.820;2023-04-20T06:31:05;95553.25;;;4.53;100.00
8717;BME280;4395;48.554;8.820;2023-04-20T06:33:08;95551.69;;;4.82;100.00
8717;BME280;4395;48.554;8.820;2023-04-20T06:35:15;95540.44;;;5.10;100.00
8717;BME280;4395;48.554;8.820;2023-04-20T06:37:18;95545.19;;;5.08;100.00
8717;BME280;4395;48.554;8.820;2023-04-20T06:39:21;95545.91;;;4.85;100.00
8717;BME280;4395;48.554;8.820;2023-04-20T06:41:24;95547.34;;;4.99;100.00
8717;BME280;4395;48.554;8.820;2023-04-20T06:43:27;95552.06;;;4.67;100.00
8717;BME280;4395;48.554;8.820;2023-04-20T06:45:30;95542.03;;;4.99;100.00
8717;BME280;4395;48.554;8.820;2023-04-20T06:47:34;95535.94;;;5.10;100.00
8717;BME280;4395;48.554;8.820;2023-04-20T06:49:37;95379.16;;;4.31;100.00
8717;BME280;4395;48.554;8.820;2023-04-20T06:51:42;95536.66;;;5.17;100.00
8717;BME280;4395;48.554;8.820;2023-04-20T06:53:44;95373.06;;;3.64;100.00
8717;BME280;4395;48.554;8.820;2023-04-20T06:55:47;95424.66;;;3.56;100.00
8717;BME280;4395;48.554;8.820;2023-04-20T06:57:50;95543.91;;;4.80;100.00
8717;BME280;4395;48.554;8.820;2023-04-20T06:59:53;95530.28;;;4.89;100.00
8717;BME280;4395;48.554;8.820;2023-04-20T07:01:56;95527.50;;;4.83;100.00
8717;BME280;4395;48.554;8.820;2023-04-20T07:03:59;95521.94;;;5.15;100.00
8717;BME280;4395;48.554;8.820;2023-04-20T07:06:02;95522.16;;;5.43;100.00
8717;BME280;4395;48.554;8.820;2023-04-20T07:08:06;95538.50;;;5.59;100.00
8717;BME280;4395;48.554;8.820;2023-04-20T07:10:12;95530.16;;;5.67;100.00
8717;BME280;4395;48.554;8.820;2023-04-20T07:12:15;95526.34;;;5.86;100.00
8717;BME280;4395;48.554;8.820;2023-04-20T07:14:18;95520.09;;;5.80;100.00
8717;BME280;4395;48.554;8.820;2023-04-20T07:16:21;95522.91;;;5.97;100.00
8717;BME280;4395;48.554;8.820;2023-04-20T07:18:24;95515.69;;;5.86;100.00
8717;BME280;4395;48.554;8.820;2023-04-20T07:20:27;95516.75;;;6.20;100.00
8717;BME280;4395;48.554;8.820;2023-04-20T07:22:29;95515.72;;;6.09;100.00
8717;BME280;4395;48.554;8.820;2023-04-20T07:24:34;95524.88;;;5.90;100.00
8717;BME280;4395;48.554;8.820;2023-04-20T07:26:37;95282.44;;;4.13;100.00
8717;BME280;4395;48.554;8.820;2023-04-20T07:28:40;95519.88;;;6.17;100.00
8717;BME280;4395;48.554;8.820;2023-04-20T07:30:43;95519.94;;;6.57;100.00
8717;BME280;4395;48.554;8.820;2023-04-20T07:32:46;95509.97;;;6.41;100.00
8717;BME280;4395;48.554;8.820;2023-04-20T07:34:50;95453.44;;;6.04;100.00
8717;BME280;4395;48.554;8.820;2023-04-20T07:36:53;95515.63;;;6.56;100.00
8717;BME280;4395;48.554;8.820;2023-04-20T07:38:56;95521.59;;;6.35;100.00
8717;BME280;4395;48.554;8.820;2023-04-20T07:41:00;95390.16;;;5.64;100.00
8717;BME280;4395;48.554;8.820;2023-04-20T07:43:03;95520.03;;;6.62;100.00
8717;BME280;4395;48.554;8.820;2023-04-20T07:45:07;95516.78;;;6.60;100.00
8717;BME280;4395;48.554;8.820;2023-04-20T07:47:10;95520.31;;;6.77;100.00
8717;BME280;4395;48.554;8.820;2023-04-20T07:49:12;95517.47;;;6.67;100.00
8717;BME280;4395;48.554;8.820;2023-04-20T07:51:15;95522.25;;;6.94;100.00
8717;BME280;4395;48.554;8.820;2023-04-20T07:53:18;95520.13;;;7.24;100.00
8717;BME280;4395;48.554;8.820;2023-04-20T07:55:21;95516.31;;;7.20;100.00
8717;BME280;4395;48.554;8.820;2023-04-20T07:57:25;95376.28;;;6.42;100.00
8717;BME280;4395;48.554;8.820;2023-04-20T07:59:28;95523.13;;;7.28;100.00
8717;BME280;4395;48.554;8.820;2023-04-20T08:01:31;95522.91;;;7.01;100.00
8717;BME280;4395;48.554;8.820;2023-04-20T08:03:34;95521.22;;;7.12;100.00
8717;BME280;4395;48.554;8.820;2023-04-20T08:05:37;95522.19;;;7.05;100.00
8717;BME280;4395;48.554;8.820;2023-04-20T08:07:41;95516.78;;;7.17;100.00
8717;BME280;4395;48.554;8.820;2023-04-20T08:09:44;95509.34;;;7.19;100.00
8717;BME280;4395;48.554;8.820;2023-04-20T08:11:47;95513.19;;;6.95;100.00
8717;BME280;4395;48.554;8.820;2023-04-20T08:13:51;95527.66;;;6.70;100.00
8717;BME280;4395;48.554;8.820;2023-04-20T08:15:53;95531.22;;;6.88;100.00
8717;BME280;4395;48.554;8.820;2023-04-20T08:17:57;95519.34;;;6.95;100.00
8717;BME280;4395;48.554;8.820;2023-04-20T08:20:00;95519.19;;;7.02;100.00
8717;BME280;4395;48.554;8.820;2023-04-20T08:22:04;95520.81;;;7.03;100.00
8717;BME280;4395;48.554;8.820;2023-04-20T08:24:07;95451.88;;;6.60;100.00
8717;BME280;4395;48.554;8.820;2023-04-20T08:26:13;95522.28;;;7.10;100.00
8717;BME280;4395;48.554;8.820;2023-04-20T08:28:16;95359.06;;;5.93;100.00
8717;BME280;4395;48.554;8.820;2023-04-20T08:30:35;95184.16;;;4.89;100.00
8717;BME280;4395;48.554;8.820;2023-04-20T08:32:38;95513.91;;;6.90;100.00
8717;BME280;4395;48.554;8.820;2023-04-20T08:34:41;95397.84;;;6.12;100.00
8717;BME280;4395;48.554;8.820;2023-04-20T08:36:44;95492.84;;;6.65;100.00
8717;BME280;4395;48.554;8.820;2023-04-20T08:38:55;95520.44;;;6.83;100.00
8717;BME280;4395;48.554;8.820;2023-04-20T08:40:58;95510.69;;;6.76;100.00
8717;BME280;4395;48.554;8.820;2023-04-20T08:43:01;95513.97;;;6.67;100.00
8717;BME280;4395;48.554;8.820;2023-04-20T08:45:05;95385.28;;;5.61;100.00
8717;BME280;4395;48.554;8.820;2023-04-20T08:47:09;95512.03;;;6.51;100.00
8717;BME280;4395;48.554;8.820;2023-04-20T08:49:14;95506.84;;;6.44;100.00
8717;BME280;4395;48.554;8.820;2023-04-20T08:51:17;95503.22;;;6.50;100.00
8717;BME280;4395;48.554;8.820;2023-04-20T08:53:20;95503.00;;;6.52;100.00
8717;BME280;4395;48.554;8.820;2023-04-20T08:55:23;95512.72;;;6.58;100.00
8717;BME280;4395;48.554;8.820;2023-04-20T08:57:26;95416.56;;;5.89;100.00
8717;BME280;4395;48.554;8.820;2023-04-20T08:59:29;95508.00;;;6.48;100.00
8717;BME280;4395;48.554;8.820;2023-04-20T09:01:32;95512.66;;;6.41;100.00
8717;BME280;4395;48.554;8.820;2023-04-20T09:03:39;95513.38;;;6.25;100.00
8717;BME280;4395;48.554;8.820;2023-04-20T09:05:43;95515.25;;;6.01;100.00
8717;BME280;4395;48.554;8.820;2023-04-20T09:07:50;95473.41;;;5.90;100.00
8717;BME280;4395;48.554;8.820;2023-04-20T09:09:54;95498.06;;;6.20;100.00
8717;BME280;4395;48.554;8.820;2023-04-20T09:12:00;95459.81;;;5.68;100.00
8717;BME280;4395;48.554;8.820;2023-04-20T09:14:06;95356.19;;;5.01;100.00
8717;BME280;4395;48.554;8.820;2023-04-20T09:16:11;95500.53;;;5.98;100.00
8717;BME280;4395;48.554;8.820;2023-04-20T09:18:14;95500.16;;;6.06;100.00
8717;BME280;4395;48.554;8.820;2023-04-20T09:20:27;95498.66;;;6.10;100.00
8717;BME280;4395;48.554;8.820;2023-04-20T09:22:32;95489.81;;;6.33;100.00
8717;BME280;4395;48.554;8.820;2023-04-20T09:24:37;95500.00;;;6.36;100.00
8717;BME280;4395;48.554;8.820;2023-04-20T09:26:40;95500.09;;;6.53;100.00
8717;BME280;4395;48.554;8.820;2023-04-20T09:28:43;95491.38;;;6.58;100.00
8717;BME280;4395;48.554;8.820;2023-04-20T09:30:47;95502.44;;;6.38;100.00
8717;BME280;4395;48.554;8.820;2023-04-20T09:33:01;95534.50;;;6.15;100.00
8717;BME280;4395;48.554;8.820;2023-04-20T09:35:05;95493.44;;;6.16;100.00
8717;BME280;4395;48.554;8.820;2023-04-20T09:37:13;95496.09;;;6.27;100.00
8717;BME280;4395;48.554;8.820;2023-04-20T09:39:18;95491.69;;;6.21;100.00
8717;BME280;4395;48.554;8.820;2023-04-20T09:41:21;95195.38;;;4.32;100.00
8717;BME280;4395;48.554;8.820;2023-04-20T09:43:27;95491.56;;;6.28;100.00
8717;BME280;4395;48.554;8.820;2023-04-20T09:45:30;95490.31;;;6.07;100.00
8717;BME280;4395;48.554;8.820;2023-04-20T09:47:34;95448.44;;;5.84;100.00
8717;BME280;4395;48.554;8.820;2023-04-20T09:49:37;95490.19;;;6.02;100.00
8717;BME280;4395;48.554;8.820;2023-04-20T09:51:41;95411.75;;;4.98;100.00
8717;BME280;4395;48.554;8.820;2023-04-20T09:53:48;95508.22;;;5.41;100.00
8717;BME280;4395;48.554;8.820;2023-04-20T09:55:53;95369.38;;;4.96;100.00
8717;BME280;4395;48.554;8.820;2023-04-20T09:57:56;95503.53;;;5.90;100.00
8717;BME280;4395;48.554;8.820;2023-04-20T10:00:00;95493.44;;;6.16;100.00
8717;BME280;4395;48.554;8.820;2023-04-20T10:02:07;95493.47;;;6.56;100.00
8717;BME280;4395;48.554;8.820;2023-04-20T10:04:10;95492.19;;;6.58;100.00
8717;BME280;4395;48.554;8.820;2023-04-20T10:06:22;95487.44;;;6.49;100.00
8717;BME280;4395;48.554;8.820;2023-04-20T10:08:25;95485.13;;;6.52;100.00
8717;BME280;4395;48.554;8.820;2023-04-20T10:10:29;95419.31;;;6.46;100.00
8717;BME280;4395;48.554;8.820;2023-04-20T10:12:32;95471.19;;;7.07;100.00
8717;BME280;4395;48.554;8.820;2023-04-20T10:14:37;95460.44;;;7.35;100.00
8717;BME280;4395;48.554;8.820;2023-04-20T10:16:40;95457.69;;;7.30;100.00
8717;BME280;4395;48.554;8.820;2023-04-20T10:18:54;95462.16;;;7.58;100.00
8717;BME280;4395;48.554;8.820;2023-04-20T10:21:04;95443.72;;;7.79;100.00
8717;BME280;4395;48.554;8.820;2023-04-20T10:23:09;95456.03;;;7.80;100.00
8717;BME280;4395;48.554;8.820;2023-04-20T10:25:16;95451.84;;;7.67;100.00
8717;BME280;4395;48.554;8.820;2023-04-20T10:27:21;95457.22;;;7.33;100.00
8717;BME280;4395;48.554;8.820;2023-04-20T10:29:24;95452.25;;;7.59;100.00
8717;BME280;4395;48.554;8.820;2023-04-20T10:31:34;95435.75;;;7.28;100.00
8717;BME280;4395;48.554;8.820;2023-04-20T10:33:48;95408.59;;;7.20;100.00
8717;BME280;4395;48.554;8.820;2023-04-20T10:35:52;95448.84;;;7.47;100.00
8717;BME280;4395;48.554;8.820;2023-04-20T10:37:55;95408.84;;;7.18;100.00
8717;BME280;4395;48.554;8.820;2023-04-20T10:39:59;95443.91;;;7.38;100.00
8717;BME280;4395;48.554;8.820;2023-04-20T10:42:02;95437.44;;;7.34;100.00
8717;BME280;4395;48.554;8.820;2023-04-20T10:44:09;95435.16;;;7.26;100.00
8717;BME280;4395;48.554;8.820;2023-04-20T10:46:13;95441.09;;;7.28;100.00
8717;BME280;4395;48.554;8.820;2023-04-20T10:48:16;95434.44;;;7.14;100.00
8717;BME280;4395;48.554;8.820;2023-04-20T10:50:19;95433.88;;;7.12;100.00
8717;BME280;4395;48.554;8.820;2023-04-20T10:52:31;95431.13;;;7.24;100.00
8717;BME280;4395;48.554;8.820;2023-04-20T10:54:36;95427.41;;;7.25;100.00
8717;BME280;4395;48.554;8.820;2023-04-20T10:56:40;95428.53;;;7.29;100.00
8717;BME280;4395;48.554;8.820;2023-04-20T10:58:43;95430.16;;;7.30;100.00
8717;BME280;4395;48.554;8.820;2023-04-20T11:00:55;95431.59;;;7.37;100.00
8717;BME280;4395;48.554;8.820;2023-04-20T11:02:58;95423.44;;;7.27;100.00
8717;BME280;4395;48.554;8.820;2023-04-20T11:05:09;95421.16;;;7.19;100.00
8717;BME280;4395;48.554;8.820;2023-04-20T11:07:13;95423.75;;;7.14;100.00
8717;BME280;4395;48.554;8.820;2023-04-20T11:09:19;95311.41;;;6.42;100.00
8717;BME280;4395;48.554;8.820;2023-04-20T11:11:24;95437.59;;;7.11;100.00
8717;BME280;4395;48.554;8.820;2023-04-20T11:13:28;95432.63;;;7.03;100.00
8717;BME280;4395;48.554;8.820;2023-04-20T11:15:31;95444.03;;;6.82;100.00
8717;BME280;4395;48.554;8.820;2023-04-20T11:17:36;95454.50;;;6.71;100.00